Language selection

Weather shortcuts

Pacific - North Coast: Past 24 Hour Conditions

 

Nanakwa Shoal - 46181

09:00 PM PDT 21 May 2024Buoy position: 53.83N 128.83W
Disclaimer

This table is a summary of hourly weather conditions for the past 24 hours.
Please note that these observations might not always be representative of weather conditions over their associated marine area.

Date / Time
(PDT)
Wind(knots) Wave height(m) Wave period(s) Pressure(kPa) Air tempC) Water tempC)
21 May 2024
21:00 NNE 7 gusts 9 0.05 2.2 101.6 13 13
20:00 NNE 9 gusts 13 0.07 2.3 101.6 14 13
19:00 NNW 7 gusts 10 0.05 2.4 101.5 15 13
18:00 WNW 8 gusts 15 0.07 2.3 101.5 15 13
17:00 W 9 gusts 17 0.12 2.3 101.4 15 13
16:00 SSW 9 gusts 16 0.22 2.4 101.4 14 13
15:00 SSW 13 gusts 20 0.21 2.3 101.4 13 13
14:00 S 8 gusts 12 0.13 2.2 101.5 12 13
13:00 S 10 gusts 12 0.10 2.1 101.5 12 12
12:00 SSE 8 gusts 9 0.09 2.2 101.5 11 12
11:00 SSW 10 gusts 12 0.11 2.0 101.6 10 12
10:00 SW 8 gusts 9 0.10 2.1 101.6 10 12
9:00 SSW 10 gusts 12 0.08 6.0 101.6 9 12
8:00 SSW 10 gusts 12 0.04 2.1 101.7 9 11
7:00 SW 9 gusts 11 0.07 2.1 101.7 9 11
6:00 W 8 gusts 11 0.10 2.2 101.7 8 12
5:00 SW 12 gusts 16 0.11 2.3 101.8 9 12
4:00 SSW 13 gusts 16 0.14 2.1 101.7 9 12
3:00 SSW 12 gusts 15 0.14 2.7 101.7 10 12
2:00 SW 13 gusts 16 0.26 2.3 101.8 10 12
1:00 SW 17 gusts 21 0.28 2.4 101.8 10 12
0:00 SW 17 gusts 20 0.22 2.2 101.8 11 12
20 May 2024
23:00 SW 13 gusts 17 0.19 2.2 101.8 11 12
22:00 SW 14 gusts 17 0.29 2.5 101.8 11 12
21:00 SW 13 gusts 16 0.27 2.4 101.9 12 12

Zoom-in to make a selection

Map of Pacific - North Coast marine weather areas Middle Nomad - 46004 South Nomad - 46036 Dixon Entrance Central - 46145 South Moresby - 46147 Nanakwa Shoal - 46181 North Hecate Strait - 46183 North Nomad - 46184 South Hecate Strait - 46185 West Sea Otter - 46204 West Dixon Entrance - 46205 East Dellwood - 46207 West Moresby - 46208 Sartine Island Cape St.James Kindakun Rocks Langara Island Masset Municipal Airport Rose Spit Sandspit Airport Bella Bella Airport Bella Coola Airport Bonilla Island Cathedral Point Cumshewa Island Grey Islet Holland Rock Lucy Islands Lightstation Prince Rupert Airport
Legend:
buoy Buoy
land station Land Station

Pacific - North Coast Area

Another Region

Date modified: